sensor_id;sensor_type;location;lat;lon;timestamp;pressure;altitude;pressure_sealevel;temperature;humidity
56681;BME280;42558;52.388;13.390;2024-03-08T00:02:08;101978.60;;;-1.49;100.00
56681;BME280;42558;52.388;13.390;2024-03-08T00:04:38;101976.89;;;-1.51;100.00
56681;BME280;42558;52.388;13.390;2024-03-08T00:07:08;101973.90;;;-1.54;100.00
56681;BME280;42558;52.388;13.390;2024-03-08T00:09:38;101973.40;;;-1.58;100.00
56681;BME280;42558;52.388;13.390;2024-03-08T00:12:08;101971.48;;;-1.58;100.00
56681;BME280;42558;52.388;13.390;2024-03-08T00:14:38;101970.23;;;-1.61;100.00
56681;BME280;42558;52.388;13.390;2024-03-08T00:17:08;101971.81;;;-1.62;100.00
56681;BME280;42558;52.388;13.390;2024-03-08T00:19:38;101970.98;;;-1.64;100.00
56681;BME280;42558;52.388;13.390;2024-03-08T00:22:09;101970.33;;;-1.68;100.00
56681;BME280;42558;52.388;13.390;2024-03-08T00:24:41;101966.23;;;-1.70;100.00
56681;BME280;42558;52.388;13.390;2024-03-08T00:27:11;101961.98;;;-1.73;100.00
56681;BME280;42558;52.388;13.390;2024-03-08T00:29:41;101966.59;;;-1.72;100.00
56681;BME280;42558;52.388;13.390;2024-03-08T00:32:11;101965.41;;;-1.71;100.00
56681;BME280;42558;52.388;13.390;2024-03-08T00:34:41;101965.67;;;-1.68;100.00
56681;BME280;42558;52.388;13.390;2024-03-08T00:37:11;101966.36;;;-1.66;100.00
56681;BME280;42558;52.388;13.390;2024-03-08T00:39:41;101961.21;;;-1.63;100.00
56681;BME280;42558;52.388;13.390;2024-03-08T00:42:12;101959.95;;;-1.62;100.00
56681;BME280;42558;52.388;13.390;2024-03-08T00:44:42;101958.23;;;-1.62;100.00
56681;BME280;42558;52.388;13.390;2024-03-08T00:47:12;101955.94;;;-1.63;100.00
56681;BME280;42558;52.388;13.390;2024-03-08T00:49:42;101954.55;;;-1.61;100.00
56681;BME280;42558;52.388;13.390;2024-03-08T00:52:12;101954.94;;;-1.60;100.00
56681;BME280;42558;52.388;13.390;2024-03-08T00:54:42;101955.39;;;-1.57;100.00
56681;BME280;42558;52.388;13.390;2024-03-08T00:57:13;101957.38;;;-1.34;100.00
56681;BME280;42558;52.388;13.390;2024-03-08T00:59:43;101957.98;;;-1.38;100.00
56681;BME280;42558;52.388;13.390;2024-03-08T01:02:13;101952.38;;;-1.39;100.00
56681;BME280;42558;52.388;13.390;2024-03-08T01:04:43;101949.59;;;-1.39;100.00
56681;BME280;42558;52.388;13.390;2024-03-08T01:07:13;101949.25;;;-1.35;100.00
56681;BME280;42558;52.388;13.390;2024-03-08T01:09:43;101944.17;;;-1.40;100.00
56681;BME280;42558;52.388;13.390;2024-03-08T01:12:13;101944.30;;;-1.41;100.00
56681;BME280;42558;52.388;13.390;2024-03-08T01:14:43;101939.45;;;-1.43;100.00
56681;BME280;42558;52.388;13.390;2024-03-08T01:17:10;101933.58;;;-1.43;100.00
56681;BME280;42558;52.388;13.390;2024-03-08T01:19:39;101932.00;;;-1.44;100.00
56681;BME280;42558;52.388;13.390;2024-03-08T01:22:09;101930.15;;;-1.41;100.00
56681;BME280;42558;52.388;13.390;2024-03-08T01:24:39;101926.54;;;-1.36;100.00
56681;BME280;42558;52.388;13.390;2024-03-08T01:27:09;101926.10;;;-1.33;100.00
56681;BME280;42558;52.388;13.390;2024-03-08T01:29:39;101925.54;;;-1.33;100.00
56681;BME280;42558;52.388;13.390;2024-03-08T01:32:09;101920.31;;;-1.23;100.00
56681;BME280;42558;52.388;13.390;2024-03-08T01:34:39;101920.21;;;-1.27;100.00
56681;BME280;42558;52.388;13.390;2024-03-08T01:37:09;101916.34;;;-1.32;100.00
56681;BME280;42558;52.388;13.390;2024-03-08T01:39:39;101915.38;;;-1.33;100.00
56681;BME280;42558;52.388;13.390;2024-03-08T01:42:09;101912.42;;;-1.38;100.00
56681;BME280;42558;52.388;13.390;2024-03-08T01:44:42;101907.08;;;-1.42;100.00
56681;BME280;42558;52.388;13.390;2024-03-08T01:47:14;101906.36;;;-1.43;100.00
56681;BME280;42558;52.388;13.390;2024-03-08T01:49:44;101900.31;;;-1.47;100.00
56681;BME280;42558;52.388;13.390;2024-03-08T01:52:16;101895.67;;;-1.51;100.00
56681;BME280;42558;52.388;13.390;2024-03-08T01:54:48;101895.11;;;-1.50;100.00
56681;BME280;42558;52.388;13.390;2024-03-08T01:57:19;101889.41;;;-1.56;100.00
56681;BME280;42558;52.388;13.390;2024-03-08T01:59:49;101887.79;;;-1.53;100.00
56681;BME280;42558;52.388;13.390;2024-03-08T02:02:21;101882.45;;;-1.51;100.00
56681;BME280;42558;52.388;13.390;2024-03-08T02:04:51;101883.76;;;-1.51;100.00
56681;BME280;42558;52.388;13.390;2024-03-08T02:07:23;101882.32;;;-1.50;100.00
56681;BME280;42558;52.388;13.390;2024-03-08T02:09:52;101882.55;;;-1.45;100.00
56681;BME280;42558;52.388;13.390;2024-03-08T02:12:22;101880.80;;;-1.46;100.00
56681;BME280;42558;52.388;13.390;2024-03-08T02:14:53;101881.39;;;-1.44;100.00
56681;BME280;42558;52.388;13.390;2024-03-08T02:17:23;101877.77;;;-1.45;100.00
56681;BME280;42558;52.388;13.390;2024-03-08T02:19:54;101875.09;;;-1.48;100.00
56681;BME280;42558;52.388;13.390;2024-03-08T02:22:25;101876.27;;;-1.48;100.00
56681;BME280;42558;52.388;13.390;2024-03-08T02:24:53;101878.19;;;-1.46;100.00
56681;BME280;42558;52.388;13.390;2024-03-08T02:27:27;101876.03;;;-1.45;100.00
56681;BME280;42558;52.388;13.390;2024-03-08T02:29:57;101876.80;;;-1.44;100.00
56681;BME280;42558;52.388;13.390;2024-03-08T02:32:27;101875.25;;;-1.48;100.00
56681;BME280;42558;52.388;13.390;2024-03-08T02:34:57;101870.84;;;-1.47;100.00
56681;BME280;42558;52.388;13.390;2024-03-08T02:37:30;101870.30;;;-1.52;100.00
56681;BME280;42558;52.388;13.390;2024-03-08T02:40:00;101868.69;;;-1.56;100.00
56681;BME280;42558;52.388;13.390;2024-03-08T02:42:28;101866.29;;;-1.56;100.00
56681;BME280;42558;52.388;13.390;2024-03-08T02:44:56;101868.91;;;-1.56;100.00
56681;BME280;42558;52.388;13.390;2024-03-08T02:47:25;101863.64;;;-1.57;100.00
56681;BME280;42558;52.388;13.390;2024-03-08T02:49:56;101861.84;;;-1.60;100.00
56681;BME280;42558;52.388;13.390;2024-03-08T02:52:25;101859.89;;;-1.65;100.00
56681;BME280;42558;52.388;13.390;2024-03-08T02:54:53;101859.23;;;-1.69;100.00
56681;BME280;42558;52.388;13.390;2024-03-08T02:57:22;101858.46;;;-1.72;100.00
56681;BME280;42558;52.388;13.390;2024-03-08T02:59:50;101853.23;;;-1.73;100.00
56681;BME280;42558;52.388;13.390;2024-03-08T03:02:18;101853.30;;;-1.74;100.00
56681;BME280;42558;52.388;13.390;2024-03-08T03:04:47;101852.15;;;-1.71;100.00
56681;BME280;42558;52.388;13.390;2024-03-08T03:07:15;101851.77;;;-1.68;100.00
56681;BME280;42558;52.388;13.390;2024-03-08T03:09:44;101845.95;;;-1.71;100.00
56681;BME280;42558;52.388;13.390;2024-03-08T03:12:12;101845.48;;;-1.66;100.00
56681;BME280;42558;52.388;13.390;2024-03-08T03:14:41;101843.17;;;-1.63;100.00
56681;BME280;42558;52.388;13.390;2024-03-08T03:17:09;101845.16;;;-1.68;100.00
56681;BME280;42558;52.388;13.390;2024-03-08T03:19:41;101843.48;;;-1.68;100.00
56681;BME280;42558;52.388;13.390;2024-03-08T03:22:12;101844.11;;;-1.73;100.00
56681;BME280;42558;52.388;13.390;2024-03-08T03:24:42;101843.14;;;-1.74;100.00
56681;BME280;42558;52.388;13.390;2024-03-08T03:27:13;101840.27;;;-1.71;100.00
56681;BME280;42558;52.388;13.390;2024-03-08T03:29:44;101843.89;;;-1.78;100.00
56681;BME280;42558;52.388;13.390;2024-03-08T03:32:19;101839.71;;;-1.82;100.00
56681;BME280;42558;52.388;13.390;2024-03-08T03:34:49;101842.21;;;-1.79;100.00
56681;BME280;42558;52.388;13.390;2024-03-08T03:37:47;101841.98;;;-1.78;100.00
56681;BME280;42558;52.388;13.390;2024-03-08T03:40:53;101838.34;;;-1.84;100.00
56681;BME280;42558;52.388;13.390;2024-03-08T03:43:26;101842.88;;;-1.90;100.00
56681;BME280;42558;52.388;13.390;2024-03-08T03:45:56;101839.01;;;-1.92;100.00
56681;BME280;42558;52.388;13.390;2024-03-08T03:48:26;101841.75;;;-1.92;100.00
56681;BME280;42558;52.388;13.390;2024-03-08T03:50:56;101839.02;;;-1.94;100.00
56681;BME280;42558;52.388;13.390;2024-03-08T03:53:27;101840.10;;;-1.93;100.00
56681;BME280;42558;52.388;13.390;2024-03-08T03:55:57;101841.37;;;-2.01;100.00
56681;BME280;42558;52.388;13.390;2024-03-08T03:58:27;101840.50;;;-2.05;100.00
56681;BME280;42558;52.388;13.390;2024-03-08T04:00:56;101842.45;;;-2.08;100.00
56681;BME280;42558;52.388;13.390;2024-03-08T04:03:25;101841.71;;;-2.09;100.00
56681;BME280;42558;52.388;13.390;2024-03-08T04:05:54;101839.36;;;-2.08;100.00
56681;BME280;42558;52.388;13.390;2024-03-08T04:08:23;101838.13;;;-2.09;100.00
56681;BME280;42558;52.388;13.390;2024-03-08T04:10:56;101839.86;;;-2.08;100.00
56681;BME280;42558;52.388;13.390;2024-03-08T04:13:25;101837.89;;;-2.05;100.00
56681;BME280;42558;52.388;13.390;2024-03-08T04:15:56;101839.54;;;-2.08;100.00
56681;BME280;42558;52.388;13.390;2024-03-08T04:18:26;101840.25;;;-2.08;100.00
56681;BME280;42558;52.388;13.390;2024-03-08T04:20:56;101837.73;;;-2.03;100.00
56681;BME280;42558;52.388;13.390;2024-03-08T04:23:26;101836.42;;;-2.06;100.00
56681;BME280;42558;52.388;13.390;2024-03-08T04:25:58;101838.79;;;-2.09;100.00
56681;BME280;42558;52.388;13.390;2024-03-08T04:28:28;101842.10;;;-2.00;100.00
56681;BME280;42558;52.388;13.390;2024-03-08T04:30:58;101839.79;;;-2.01;100.00
56681;BME280;42558;52.388;13.390;2024-03-08T04:33:30;101838.80;;;-2.07;100.00
56681;BME280;42558;52.388;13.390;2024-03-08T04:36:00;101836.27;;;-2.12;100.00
56681;BME280;42558;52.388;13.390;2024-03-08T04:38:31;101835.98;;;-2.14;100.00
56681;BME280;42558;52.388;13.390;2024-03-08T04:41:01;101837.60;;;-2.19;100.00
56681;BME280;42558;52.388;13.390;2024-03-08T04:43:31;101831.90;;;-2.17;100.00
56681;BME280;42558;52.388;13.390;2024-03-08T04:46:02;101831.08;;;-2.19;100.00
56681;BME280;42558;52.388;13.390;2024-03-08T04:48:33;101827.92;;;-2.22;100.00
56681;BME280;42558;52.388;13.390;2024-03-08T04:51:03;101830.00;;;-2.22;100.00
56681;BME280;42558;52.388;13.390;2024-03-08T04:53:31;101832.44;;;-2.17;100.00
56681;BME280;42558;52.388;13.390;2024-03-08T04:56:00;101830.60;;;-2.19;100.00
56681;BME280;42558;52.388;13.390;2024-03-08T04:58:36;101829.44;;;-2.20;100.00
56681;BME280;42558;52.388;13.390;2024-03-08T05:01:05;101832.58;;;-2.19;100.00
56681;BME280;42558;52.388;13.390;2024-03-08T05:03:36;101834.46;;;-2.15;100.00
56681;BME280;42558;52.388;13.390;2024-03-08T05:06:06;101831.92;;;-2.15;100.00
56681;BME280;42558;52.388;13.390;2024-03-08T05:08:36;101832.73;;;-2.16;100.00
56681;BME280;42558;52.388;13.390;2024-03-08T05:11:06;101829.08;;;-2.12;100.00
56681;BME280;42558;52.388;13.390;2024-03-08T05:13:37;101832.13;;;-2.18;100.00
56681;BME280;42558;52.388;13.390;2024-03-08T05:16:07;101831.67;;;-2.24;100.00
56681;BME280;42558;52.388;13.390;2024-03-08T05:18:37;101833.36;;;-2.23;100.00
56681;BME280;42558;52.388;13.390;2024-03-08T05:21:08;101828.42;;;-2.26;100.00
56681;BME280;42558;52.388;13.390;2024-03-08T05:23:39;101825.11;;;-2.22;100.00
56681;BME280;42558;52.388;13.390;2024-03-08T05:26:09;101829.46;;;-2.13;100.00
56681;BME280;42558;52.388;13.390;2024-03-08T05:28:39;101825.39;;;-2.21;100.00
56681;BME280;42558;52.388;13.390;2024-03-08T05:31:09;101825.24;;;-2.27;100.00
56681;BME280;42558;52.388;13.390;2024-03-08T05:33:39;101823.68;;;-2.31;100.00
56681;BME280;42558;52.388;13.390;2024-03-08T05:36:09;101825.80;;;-2.25;100.00
56681;BME280;42558;52.388;13.390;2024-03-08T05:38:41;101820.63;;;-2.12;100.00
56681;BME280;42558;52.388;13.390;2024-03-08T05:41:13;101819.90;;;-2.21;100.00
56681;BME280;42558;52.388;13.390;2024-03-08T05:43:43;101816.05;;;-2.22;100.00
56681;BME280;42558;52.388;13.390;2024-03-08T05:46:15;101815.19;;;-2.17;100.00
56681;BME280;42558;52.388;13.390;2024-03-08T05:48:47;101816.19;;;-2.09;100.00
56681;BME280;42558;52.388;13.390;2024-03-08T05:51:18;101817.26;;;-2.03;100.00
56681;BME280;42558;52.388;13.390;2024-03-08T05:53:51;101817.84;;;-1.99;100.00
56681;BME280;42558;52.388;13.390;2024-03-08T05:56:23;101815.03;;;-2.09;100.00
56681;BME280;42558;52.388;13.390;2024-03-08T05:58:53;101818.16;;;-2.10;100.00
56681;BME280;42558;52.388;13.390;2024-03-08T06:01:25;101819.79;;;-2.16;100.00
56681;BME280;42558;52.388;13.390;2024-03-08T06:03:57;101815.40;;;-2.17;100.00
56681;BME280;42558;52.388;13.390;2024-03-08T06:06:27;101819.94;;;-2.16;100.00
56681;BME280;42558;52.388;13.390;2024-03-08T06:08:57;101822.14;;;-2.12;100.00
56681;BME280;42558;52.388;13.390;2024-03-08T06:11:28;101821.95;;;-2.08;100.00
56681;BME280;42558;52.388;13.390;2024-03-08T06:14:00;101825.69;;;-2.00;100.00
56681;BME280;42558;52.388;13.390;2024-03-08T06:16:30;101824.89;;;-1.89;100.00
56681;BME280;42558;52.388;13.390;2024-03-08T06:19:00;101823.14;;;-1.85;100.00
56681;BME280;42558;52.388;13.390;2024-03-08T06:21:32;101829.27;;;-1.79;100.00
56681;BME280;42558;52.388;13.390;2024-03-08T06:24:03;101827.55;;;-1.71;100.00
56681;BME280;42558;52.388;13.390;2024-03-08T06:26:33;101829.77;;;-1.58;100.00
56681;BME280;42558;52.388;13.390;2024-03-08T06:29:06;101833.33;;;-1.50;100.00
56681;BME280;42558;52.388;13.390;2024-03-08T06:31:37;101831.45;;;-1.46;100.00
56681;BME280;42558;52.388;13.390;2024-03-08T06:34:09;101830.17;;;-1.45;100.00
56681;BME280;42558;52.388;13.390;2024-03-08T06:36:39;101834.11;;;-1.45;100.00
56681;BME280;42558;52.388;13.390;2024-03-08T06:39:09;101833.54;;;-1.46;100.00
56681;BME280;42558;52.388;13.390;2024-03-08T06:41:40;101824.73;;;-1.39;100.00
56681;BME280;42558;52.388;13.390;2024-03-08T06:44:10;101822.06;;;-1.31;100.00
56681;BME280;42558;52.388;13.390;2024-03-08T06:46:40;101821.56;;;-1.22;100.00
56681;BME280;42558;52.388;13.390;2024-03-08T06:49:10;101823.27;;;-1.16;100.00
56681;BME280;42558;52.388;13.390;2024-03-08T06:51:41;101818.60;;;-1.14;100.00
56681;BME280;42558;52.388;13.390;2024-03-08T06:54:11;101812.63;;;-1.04;100.00
56681;BME280;42558;52.388;13.390;2024-03-08T06:56:41;101818.89;;;-0.99;100.00
56681;BME280;42558;52.388;13.390;2024-03-08T06:59:11;101814.38;;;-0.92;100.00
56681;BME280;42558;52.388;13.390;2024-03-08T07:01:43;101820.81;;;-0.67;100.00
56681;BME280;42558;52.388;13.390;2024-03-08T07:04:13;101816.82;;;-0.33;100.00
56681;BME280;42558;52.388;13.390;2024-03-08T07:06:43;101817.31;;;-0.28;100.00
56681;BME280;42558;52.388;13.390;2024-03-08T07:09:13;101816.71;;;-0.17;100.00
56681;BME280;42558;52.388;13.390;2024-03-08T07:11:43;101815.67;;;-0.08;100.00
56681;BME280;42558;52.388;13.390;2024-03-08T07:14:14;101814.81;;;0.07;100.00
56681;BME280;42558;52.388;13.390;2024-03-08T07:16:45;101811.48;;;0.18;100.00
56681;BME280;42558;52.388;13.390;2024-03-08T07:19:16;101802.87;;;0.40;100.00
56681;BME280;42558;52.388;13.390;2024-03-08T07:21:46;101803.48;;;0.36;100.00
56681;BME280;42558;52.388;13.390;2024-03-08T07:24:17;101797.15;;;0.45;100.00
56681;BME280;42558;52.388;13.390;2024-03-08T07:26:47;101798.05;;;0.33;100.00
56681;BME280;42558;52.388;13.390;2024-03-08T07:29:22;101793.21;;;0.38;100.00
56681;BME280;42558;52.388;13.390;2024-03-08T07:31:50;101791.97;;;0.72;100.00
56681;BME280;42558;52.388;13.390;2024-03-08T07:34:25;101789.20;;;0.97;100.00
56681;BME280;42558;52.388;13.390;2024-03-08T07:36:56;101793.80;;;1.21;100.00
56681;BME280;42558;52.388;13.390;2024-03-08T07:39:26;101787.21;;;1.28;100.00
56681;BME280;42558;52.388;13.390;2024-03-08T07:41:56;101780.33;;;1.24;100.00
56681;BME280;42558;52.388;13.390;2024-03-08T07:44:26;101778.99;;;1.41;100.00
56681;BME280;42558;52.388;13.390;2024-03-08T07:46:56;101776.73;;;1.46;100.00
56681;BME280;42558;52.388;13.390;2024-03-08T07:49:27;101781.54;;;1.37;100.00
56681;BME280;42558;52.388;13.390;2024-03-08T07:51:57;101778.15;;;1.49;100.00
56681;BME280;42558;52.388;13.390;2024-03-08T07:54:27;101772.16;;;1.58;100.00
56681;BME280;42558;52.388;13.390;2024-03-08T07:56:57;101767.59;;;1.96;100.00
56681;BME280;42558;52.388;13.390;2024-03-08T07:59:28;101766.23;;;2.22;100.00
56681;BME280;42558;52.388;13.390;2024-03-08T08:01:58;101760.74;;;2.61;100.00
56681;BME280;42558;52.388;13.390;2024-03-08T08:04:29;101756.54;;;2.81;100.00
56681;BME280;42558;52.388;13.390;2024-03-08T08:06:59;101758.81;;;2.81;100.00
56681;BME280;42558;52.388;13.390;2024-03-08T08:09:29;101755.71;;;2.92;100.00
56681;BME280;42558;52.388;13.390;2024-03-08T08:12:05;101749.83;;;2.62;100.00
56681;BME280;42558;52.388;13.390;2024-03-08T08:14:36;101753.05;;;3.06;100.00
56681;BME280;42558;52.388;13.390;2024-03-08T08:17:06;101748.44;;;3.73;99.89
56681;BME280;42558;52.388;13.390;2024-03-08T08:19:41;101747.52;;;3.51;98.54
56681;BME280;42558;52.388;13.390;2024-03-08T08:22:09;101744.58;;;3.42;99.21
56681;BME280;42558;52.388;13.390;2024-03-08T08:24:38;101744.94;;;3.54;98.41
56681;BME280;42558;52.388;13.390;2024-03-08T08:27:06;101744.46;;;3.61;96.89
56681;BME280;42558;52.388;13.390;2024-03-08T08:29:35;101741.10;;;3.42;97.93
56681;BME280;42558;52.388;13.390;2024-03-08T08:32:04;101740.48;;;3.62;97.61
56681;BME280;42558;52.388;13.390;2024-03-08T08:34:31;101728.73;;;4.03;97.14
56681;BME280;42558;52.388;13.390;2024-03-08T08:37:00;101731.90;;;4.13;95.37
56681;BME280;42558;52.388;13.390;2024-03-08T08:39:28;101731.33;;;4.31;94.63
56681;BME280;42558;52.388;13.390;2024-03-08T08:41:58;101727.02;;;4.61;92.15
56681;BME280;42558;52.388;13.390;2024-03-08T08:44:26;101725.63;;;4.06;91.61
56681;BME280;42558;52.388;13.390;2024-03-08T08:46:57;101713.81;;;4.33;91.63
56681;BME280;42558;52.388;13.390;2024-03-08T08:49:40;101716.96;;;4.49;90.14
56681;BME280;42558;52.388;13.390;2024-03-08T08:52:10;101711.60;;;4.24;89.70
56681;BME280;42558;52.388;13.390;2024-03-08T08:54:45;101712.22;;;4.00;89.79
56681;BME280;42558;52.388;13.390;2024-03-08T08:57:19;101711.48;;;4.22;89.71
56681;BME280;42558;52.388;13.390;2024-03-08T08:59:50;101705.27;;;4.33;89.64
56681;BME280;42558;52.388;13.390;2024-03-08T09:02:20;101704.13;;;4.47;88.01
56681;BME280;42558;52.388;13.390;2024-03-08T09:04:50;101699.42;;;4.27;87.87
56681;BME280;42558;52.388;13.390;2024-03-08T09:07:21;101696.02;;;4.65;87.46
56681;BME280;42558;52.388;13.390;2024-03-08T09:09:51;101689.47;;;5.84;87.53
56681;BME280;42558;52.388;13.390;2024-03-08T09:12:26;101689.65;;;5.03;83.45
56681;BME280;42558;52.388;13.390;2024-03-08T09:14:57;101687.10;;;4.97;83.89
56681;BME280;42558;52.388;13.390;2024-03-08T09:17:27;101687.20;;;4.86;83.89
56681;BME280;42558;52.388;13.390;2024-03-08T09:19:57;101682.99;;;5.09;82.65
56681;BME280;42558;52.388;13.390;2024-03-08T09:22:27;101675.53;;;5.45;81.46
56681;BME280;42558;52.388;13.390;2024-03-08T09:24:57;101671.97;;;5.09;81.43
56681;BME280;42558;52.388;13.390;2024-03-08T09:27:27;101670.77;;;5.19;81.65
56681;BME280;42558;52.388;13.390;2024-03-08T09:29:58;101669.25;;;5.17;81.16
56681;BME280;42558;52.388;13.390;2024-03-08T09:32:28;101662.92;;;5.26;82.02
56681;BME280;42558;52.388;13.390;2024-03-08T09:34:59;101657.84;;;5.44;81.11
56681;BME280;42558;52.388;13.390;2024-03-08T09:37:31;101661.29;;;5.53;79.48
56681;BME280;42558;52.388;13.390;2024-03-08T09:40:01;101657.84;;;5.68;78.83
56681;BME280;42558;52.388;13.390;2024-03-08T09:42:35;101653.42;;;5.78;77.63
56681;BME280;42558;52.388;13.390;2024-03-08T09:45:11;101648.73;;;6.20;77.01
56681;BME280;42558;52.388;13.390;2024-03-08T09:47:45;101649.77;;;5.57;75.64
56681;BME280;42558;52.388;13.390;2024-03-08T09:50:16;101648.23;;;5.79;74.62
56681;BME280;42558;52.388;13.390;2024-03-08T09:52:48;101646.19;;;5.69;73.88
56681;BME280;42558;52.388;13.390;2024-03-08T09:55:20;101646.50;;;5.84;74.56
56681;BME280;42558;52.388;13.390;2024-03-08T09:57:54;101640.88;;;6.19;72.85
56681;BME280;42558;52.388;13.390;2024-03-08T10:00:44;101635.39;;;6.34;72.00
56681;BME280;42558;52.388;13.390;2024-03-08T10:03:13;101631.09;;;6.08;71.93
56681;BME280;42558;52.388;13.390;2024-03-08T10:05:46;101625.00;;;6.28;71.57
56681;BME280;42558;52.388;13.390;2024-03-08T10:08:14;101621.48;;;6.31;71.87
56681;BME280;42558;52.388;13.390;2024-03-08T10:10:42;101614.73;;;6.98;73.05
56681;BME280;42558;52.388;13.390;2024-03-08T10:13:11;101616.41;;;6.84;68.94
56681;BME280;42558;52.388;13.390;2024-03-08T10:15:46;101611.98;;;6.82;70.34
56681;BME280;42558;52.388;13.390;2024-03-08T10:18:16;101612.20;;;6.91;70.29
56681;BME280;42558;52.388;13.390;2024-03-08T10:21:03;101604.27;;;7.85;68.41
56681;BME280;42558;52.388;13.390;2024-03-08T10:23:37;101599.36;;;7.55;65.76
56681;BME280;42558;52.388;13.390;2024-03-08T10:26:18;101605.19;;;6.42;68.32
56681;BME280;42558;52.388;13.390;2024-03-08T10:28:49;101595.42;;;6.79;68.38
56681;BME280;42558;52.388;13.390;2024-03-08T10:31:20;101595.79;;;6.88;66.98
56681;BME280;42558;52.388;13.390;2024-03-08T10:33:50;101588.33;;;7.41;68.24
56681;BME280;42558;52.388;13.390;2024-03-08T10:36:20;101578.95;;;8.15;65.94
56681;BME280;42558;52.388;13.390;2024-03-08T10:38:51;101574.73;;;7.91;63.54
56681;BME280;42558;52.388;13.390;2024-03-08T10:41:24;101581.55;;;7.37;63.03
56681;BME280;42558;52.388;13.390;2024-03-08T10:49:32;101571.15;;;7.30;63.03
56681;BME280;42558;52.388;13.390;2024-03-08T10:52:05;101563.56;;;8.12;64.49
56681;BME280;42558;52.388;13.390;2024-03-08T10:54:37;101561.10;;;7.96;62.11
56681;BME280;42558;52.388;13.390;2024-03-08T10:57:17;101559.82;;;7.91;61.61
56681;BME280;42558;52.388;13.390;2024-03-08T10:59:48;101559.00;;;8.07;61.64
56681;BME280;42558;52.388;13.390;2024-03-08T11:02:20;101551.21;;;7.90;62.01
56681;BME280;42558;52.388;13.390;2024-03-08T11:04:52;101554.59;;;8.15;61.22
56681;BME280;42558;52.388;13.390;2024-03-08T11:07:25;101551.04;;;7.57;60.54
56681;BME280;42558;52.388;13.390;2024-03-08T11:09:56;101546.75;;;7.97;62.76
56681;BME280;42558;52.388;13.390;2024-03-08T11:12:25;101542.64;;;7.76;60.19
56681;BME280;42558;52.388;13.390;2024-03-08T11:15:02;101539.00;;;7.96;60.44
56681;BME280;42558;52.388;13.390;2024-03-08T11:20:18;101529.14;;;8.08;60.44
56681;BME280;42558;52.388;13.390;2024-03-08T11:23:00;101522.32;;;8.23;58.22
56681;BME280;42558;52.388;13.390;2024-03-08T11:25:38;101518.37;;;7.55;57.69
56681;BME280;42558;52.388;13.390;2024-03-08T11:28:20;101519.23;;;8.06;58.88
56681;BME280;42558;52.388;13.390;2024-03-08T11:33:32;101501.09;;;8.18;58.21
56681;BME280;42558;52.388;13.390;2024-03-08T11:38:42;101499.00;;;7.60;55.70
56681;BME280;42558;52.388;13.390;2024-03-08T11:41:13;101504.01;;;7.87;57.36
56681;BME280;42558;52.388;13.390;2024-03-08T11:43:50;101492.10;;;8.16;56.31
56681;BME280;42558;52.388;13.390;2024-03-08T11:46:30;101493.06;;;7.99;55.53
56681;BME280;42558;52.388;13.390;2024-03-08T11:48:59;101487.75;;;8.17;54.03
56681;BME280;42558;52.388;13.390;2024-03-08T11:51:30;101484.30;;;7.89;54.72
56681;BME280;42558;52.388;13.390;2024-03-08T11:53:58;101477.61;;;7.97;54.40
56681;BME280;42558;52.388;13.390;2024-03-08T11:56:27;101474.20;;;8.30;53.83
56681;BME280;42558;52.388;13.390;2024-03-08T11:58:56;101472.77;;;8.19;53.83
56681;BME280;42558;52.388;13.390;2024-03-08T12:01:31;101474.03;;;7.76;54.04
56681;BME280;42558;52.388;13.390;2024-03-08T12:04:01;101472.11;;;7.80;54.37
56681;BME280;42558;52.388;13.390;2024-03-08T12:06:38;101471.59;;;8.01;55.13
56681;BME280;42558;52.388;13.390;2024-03-08T12:09:11;101466.88;;;8.41;54.16
56681;BME280;42558;52.388;13.390;2024-03-08T12:11:40;101462.14;;;8.01;52.81
56681;BME280;42558;52.388;13.390;2024-03-08T12:14:09;101460.58;;;7.77;51.76
56681;BME280;42558;52.388;13.390;2024-03-08T12:16:39;101458.04;;;7.99;51.19
56681;BME280;42558;52.388;13.390;2024-03-08T12:19:09;101452.34;;;8.21;50.64
56681;BME280;42558;52.388;13.390;2024-03-08T12:21:42;101448.80;;;7.90;49.59
56681;BME280;42558;52.388;13.390;2024-03-08T12:24:18;101449.49;;;8.00;49.96
56681;BME280;42558;52.388;13.390;2024-03-08T12:26:49;101443.58;;;8.16;50.27
56681;BME280;42558;52.388;13.390;2024-03-08T12:29:25;101436.87;;;8.29;50.92
56681;BME280;42558;52.388;13.390;2024-03-08T12:32:00;101429.23;;;8.01;52.21
56681;BME280;42558;52.388;13.390;2024-03-08T12:34:35;101429.48;;;8.19;53.64
56681;BME280;42558;52.388;13.390;2024-03-08T12:37:05;101422.50;;;8.83;51.98
56681;BME280;42558;52.388;13.390;2024-03-08T12:39:36;101419.17;;;9.00;50.76
56681;BME280;42558;52.388;13.390;2024-03-08T12:42:07;101416.27;;;8.57;50.13
56681;BME280;42558;52.388;13.390;2024-03-08T12:44:35;101411.33;;;8.15;50.24
56681;BME280;42558;52.388;13.390;2024-03-08T12:47:10;101407.08;;;8.24;51.89
56681;BME280;42558;52.388;13.390;2024-03-08T12:49:40;101402.09;;;8.37;51.38
56681;BME280;42558;52.388;13.390;2024-03-08T12:52:10;101398.52;;;8.25;51.94
56681;BME280;42558;52.388;13.390;2024-03-08T12:54:40;101395.53;;;8.56;51.35
56681;BME280;42558;52.388;13.390;2024-03-08T12:57:11;101391.39;;;8.32;50.28
56681;BME280;42558;52.388;13.390;2024-03-08T12:59:41;101385.24;;;8.47;51.26
56681;BME280;42558;52.388;13.390;2024-03-08T13:02:12;101390.50;;;8.63;50.35
56681;BME280;42558;52.388;13.390;2024-03-08T13:04:42;101382.34;;;8.44;49.77
56681;BME280;42558;52.388;13.390;2024-03-08T13:07:12;101381.20;;;8.74;50.17
56681;BME280;42558;52.388;13.390;2024-03-08T13:09:46;101378.24;;;8.53;48.44
56681;BME280;42558;52.388;13.390;2024-03-08T13:12:16;101377.04;;;8.47;49.19